Time;durP1;ratioP1;P1;durP2;ratioP2;P2;SDS_P1;SDS_P2;PMS_P1;PMS_P2;Temp;Humidity;BMP_temperature;BMP_pressure;BME280_temperature;BME280_humidity;BME280_pressure;Samples;Min_cycle;Max_cycle;Signal;HPM_P1;HPM_P2
2022/12/20 00:01:55;;;;;;;6.82;2.83;;;11.90;99.90;;;;;;5056657;28;20021;-68
2022/12/20 00:04:21;;;;;;;5.15;2.72;;;11.90;99.90;;;;;;5056511;28;20025;-68
2022/12/20 00:06:46;;;;;;;7.28;2.67;;;11.90;99.90;;;;;;5059534;28;20370;-68
2022/12/20 00:09:12;;;;;;;7.07;2.97;;;11.80;99.90;;;;;;5059787;28;20656;-68
2022/12/20 00:11:39;;;;;;;8.88;2.50;;;11.80;99.90;;;;;;5059962;28;20045;-68
2022/12/20 00:14:06;;;;;;;7.00;2.70;;;11.80;99.90;;;;;;5060171;28;20024;-68
2022/12/20 00:16:33;;;;;;;7.85;3.08;;;11.80;99.90;;;;;;5060374;28;20025;-68
2022/12/20 00:19:02;;;;;;;4.15;2.47;;;11.80;99.90;;;;;;5060048;28;20480;-68
2022/12/20 00:21:29;;;;;;;6.30;2.83;;;11.80;99.90;;;;;;5060419;28;20119;-69
2022/12/20 00:23:55;;;;;;;9.10;3.00;;;11.80;99.90;;;;;;5059685;28;20017;-69
2022/12/20 00:26:24;;;;;;;6.85;2.45;;;11.80;99.90;;;;;;5060127;28;20104;-68
2022/12/20 00:28:50;;;;;;;5.13;2.38;;;11.70;99.90;;;;;;5059882;28;20100;-68
2022/12/20 00:31:18;;;;;;;7.55;2.92;;;11.70;99.90;;;;;;5059849;28;20075;-68
2022/12/20 00:33:46;;;;;;;6.10;2.90;;;11.70;99.90;;;;;;5059758;28;20025;-68
2022/12/20 00:36:12;;;;;;;6.97;2.50;;;11.70;99.90;;;;;;5046249;28;20028;-68
2022/12/20 00:38:38;;;;;;;4.95;2.58;;;11.70;99.90;;;;;;5041795;28;20032;-68
2022/12/20 00:41:12;;;;;;;6.38;2.45;;;11.70;99.90;;;;;;5059981;28;20116;-68
2022/12/20 00:43:40;;;;;;;6.45;2.75;;;11.80;99.90;;;;;;5059879;28;20428;-69
2022/12/20 00:46:10;;;;;;;5.90;2.55;;;11.70;99.90;;;;;;5041657;28;20086;-69
2022/12/20 00:48:36;;;;;;;4.97;2.60;;;11.70;99.90;;;;;;5041621;28;20032;-69
2022/12/20 00:51:05;;;;;;;8.40;2.90;;;11.70;99.90;;;;;;5059440;28;20033;-69
2022/12/20 00:53:31;;;;;;;5.50;2.25;;;11.80;99.90;;;;;;5059334;28;20037;-69
2022/12/20 00:55:57;;;;;;;6.32;2.67;;;11.80;99.90;;;;;;5041550;28;20029;-69
2022/12/20 00:58:24;;;;;;;4.40;2.63;;;11.80;99.90;;;;;;5059527;28;20025;-68
2022/12/20 01:00:50;;;;;;;7.63;2.92;;;11.80;99.90;;;;;;5041393;28;20040;-68
2022/12/20 01:03:16;;;;;;;5.68;2.63;;;11.80;99.90;;;;;;5041291;28;20029;-68
2022/12/20 01:06:01;;;;;;;8.32;3.03;;;11.90;99.90;;;;;;5041241;28;20086;-69
2022/12/20 01:08:29;;;;;;;3.80;2.10;;;11.90;99.90;;;;;;5040779;28;20200;-68
2022/12/20 01:10:59;;;;;;;7.22;2.70;;;11.90;99.90;;;;;;5058939;28;20529;-68
2022/12/20 01:13:26;;;;;;;7.30;2.47;;;12.00;99.90;;;;;;5059406;28;20378;-69
2022/12/20 01:15:51;;;;;;;5.15;2.72;;;11.90;99.90;;;;;;5058977;28;20489;-69
2022/12/20 01:18:17;;;;;;;10.05;2.92;;;12.10;99.90;;;;;;5040780;28;20048;-68
2022/12/20 01:20:42;;;;;;;6.43;2.25;;;12.10;99.90;;;;;;5059000;28;20082;-68
2022/12/20 01:23:08;;;;;;;6.82;2.50;;;12.10;99.90;;;;;;5059022;28;20508;-69
2022/12/20 01:25:34;;;;;;;5.88;2.60;;;12.10;99.90;;;;;;5058620;28;20080;-69
2022/12/20 01:27:59;;;;;;;6.93;2.80;;;12.20;99.90;;;;;;5058923;28;20021;-69
2022/12/20 01:30:25;;;;;;;6.43;2.40;;;12.20;99.90;;;;;;5058698;28;20039;-68
2022/12/20 01:32:50;;;;;;;4.05;2.25;;;12.20;99.90;;;;;;5059052;28;20025;-68
2022/12/20 01:35:16;;;;;;;8.65;2.53;;;12.30;99.90;;;;;;5040754;28;20057;-68
2022/12/20 01:37:42;;;;;;;6.55;3.03;;;12.30;99.90;;;;;;5032964;28;20021;-68
2022/12/20 01:40:09;;;;;;;6.38;2.78;;;12.30;99.90;;;;;;5040498;28;20033;-68
2022/12/20 01:42:35;;;;;;;7.28;2.70;;;12.30;99.90;;;;;;5040758;28;20025;-68
2022/12/20 01:45:02;;;;;;;5.68;2.20;;;12.30;99.90;;;;;;5058454;28;20029;-68
2022/12/20 01:47:33;;;;;;;5.55;2.63;;;12.30;99.90;;;;;;5058177;28;20028;-69
2022/12/20 01:50:01;;;;;;;7.25;3.03;;;12.40;99.90;;;;;;5058248;28;20029;-68
2022/12/20 01:52:39;;;;;;;8.23;2.47;;;12.40;99.90;;;;;;5058608;28;20528;-69
2022/12/20 01:55:17;;;;;;;6.57;2.55;;;12.40;99.90;;;;;;5058208;28;20431;-69
2022/12/20 01:57:58;;;;;;;10.13;2.53;;;12.40;99.90;;;;;;5040256;28;20021;-69
2022/12/20 02:00:24;;;;;;;7.45;2.50;;;12.50;99.90;;;;;;5058545;28;20485;-68
2022/12/20 02:02:50;;;;;;;8.57;2.58;;;12.50;99.90;;;;;;5057918;28;20100;-68
2022/12/20 02:05:19;;;;;;;6.47;2.70;;;12.50;99.90;;;;;;5058133;28;20032;-69
2022/12/20 02:07:48;;;;;;;9.30;2.53;;;12.50;99.90;;;;;;5058019;28;20032;-68
2022/12/20 02:10:15;;;;;;;6.00;2.88;;;12.50;99.90;;;;;;5057774;28;20130;-68
2022/12/20 02:12:45;;;;;;;7.40;2.70;;;12.60;99.90;;;;;;5039959;28;20029;-68
2022/12/20 02:15:23;;;;;;;6.53;2.65;;;12.60;99.90;;;;;;5058142;28;20025;-68
2022/12/20 02:17:48;;;;;;;7.65;2.40;;;12.60;99.90;;;;;;5039817;28;20032;-69
2022/12/20 02:20:39;;;;;;;6.78;2.72;;;12.60;99.90;;;;;;5057772;28;20397;-68
2022/12/20 02:23:23;;;;;;;7.05;2.47;;;12.60;99.90;;;;;;5058041;28;20036;-69
2022/12/20 02:26:16;;;;;;;6.75;2.55;;;12.60;99.90;;;;;;5057839;28;20485;-68
2022/12/20 02:28:44;;;;;;;5.82;2.25;;;12.60;99.90;;;;;;5057051;28;20020;-68
2022/12/20 02:31:13;;;;;;;7.25;3.00;;;12.50;99.90;;;;;;5057771;28;20033;-68
2022/12/20 02:33:42;;;;;;;3.80;1.90;;;12.50;99.90;;;;;;5057474;28;20029;-68
2022/12/20 02:36:08;;;;;;;10.93;2.70;;;12.60;99.90;;;;;;5057576;28;20021;-69
2022/12/20 02:38:36;;;;;;;7.68;2.58;;;12.50;99.90;;;;;;5057313;28;20379;-68
2022/12/20 02:41:06;;;;;;;7.75;2.55;;;12.50;99.90;;;;;;5057611;28;20097;-68
2022/12/20 02:46:19;;;;;;;8.13;2.63;;;12.60;99.90;;;;;;5057721;28;20055;-69
2022/12/20 02:48:47;;;;;;;8.35;3.25;;;12.60;99.90;;;;;;5057493;28;20112;-68
2022/12/20 02:51:17;;;;;;;8.85;2.60;;;12.60;99.90;;;;;;5057397;28;20033;-69
2022/12/20 02:53:43;;;;;;;7.35;2.33;;;12.60;99.90;;;;;;5057255;28;20048;-68
2022/12/20 02:56:15;;;;;;;6.00;2.17;;;12.70;99.90;;;;;;5057533;28;20021;-69
2022/12/20 02:59:10;;;;;;;8.20;2.67;;;12.70;99.90;;;;;;5057270;28;20021;-69
2022/12/20 03:01:40;;;;;;;6.57;2.38;;;12.70;99.90;;;;;;5011019;28;20037;-69
2022/12/20 03:04:07;;;;;;;10.35;2.60;;;12.70;99.90;;;;;;5057180;28;20024;-68
2022/12/20 03:06:33;;;;;;;5.53;2.20;;;12.70;99.90;;;;;;5057375;28;20104;-69
2022/12/20 03:08:59;;;;;;;8.70;2.70;;;12.70;99.90;;;;;;5056943;28;20048;-69
2022/12/20 03:11:24;;;;;;;7.68;2.70;;;12.70;99.90;;;;;;5057014;28;20420;-69
2022/12/20 03:13:50;;;;;;;5.10;2.40;;;12.70;99.90;;;;;;5057241;28;20032;-68
2022/12/20 03:16:16;;;;;;;7.78;2.67;;;12.80;99.90;;;;;;5057205;28;20423;-68
2022/12/20 03:18:44;;;;;;;7.85;2.78;;;12.70;99.90;;;;;;5039144;28;20048;-69
2022/12/20 03:21:09;;;;;;;5.47;2.50;;;12.70;99.90;;;;;;5039250;28;20074;-69
2022/12/20 03:23:35;;;;;;;8.20;2.70;;;12.80;99.90;;;;;;5038925;28;20552;-68
2022/12/20 03:26:01;;;;;;;5.57;2.17;;;12.70;99.90;;;;;;5057328;28;20370;-69
2022/12/20 03:28:26;;;;;;;7.85;2.50;;;12.80;99.90;;;;;;5056922;28;20539;-69
2022/12/20 03:30:52;;;;;;;7.50;2.67;;;12.80;99.90;;;;;;5057090;28;20396;-69
2022/12/20 03:33:18;;;;;;;7.07;2.65;;;12.80;99.90;;;;;;5038852;28;20025;-68
2022/12/20 03:35:43;;;;;;;9.27;3.00;;;12.80;99.90;;;;;;5039156;28;20017;-69
2022/12/20 03:38:09;;;;;;;7.07;2.60;;;12.80;99.90;;;;;;5056753;28;20024;-68
2022/12/20 03:40:34;;;;;;;8.38;3.25;;;12.80;99.90;;;;;;5059245;28;20040;-68
2022/12/20 03:43:00;;;;;;;5.90;1.98;;;12.80;99.90;;;;;;5042880;28;20029;-69
2022/12/20 03:45:26;;;;;;;6.03;2.17;;;12.90;99.90;;;;;;5060915;28;20389;-69
2022/12/20 03:47:51;;;;;;;6.22;2.30;;;13.00;99.90;;;;;;5026242;28;20039;-69
2022/12/20 03:50:17;;;;;;;7.47;1.90;;;13.00;99.90;;;;;;5060869;28;20481;-68
2022/12/20 03:52:43;;;;;;;5.07;1.90;;;13.00;99.90;;;;;;5060811;28;20524;-69
2022/12/20 03:55:09;;;;;;;6.50;2.28;;;13.00;99.90;;;;;;5060575;28;20021;-69
2022/12/20 03:57:35;;;;;;;5.25;1.92;;;13.00;99.90;;;;;;5060815;28;20025;-69
2022/12/20 04:00:00;;;;;;;6.90;2.00;;;13.00;99.90;;;;;;5042678;28;20035;-68
2022/12/20 04:02:26;;;;;;;5.88;1.77;;;13.00;99.90;;;;;;5060287;28;20032;-68
2022/12/20 04:04:52;;;;;;;6.32;2.20;;;13.00;99.90;;;;;;5060478;28;20499;-69
2022/12/20 04:07:17;;;;;;;6.70;2.10;;;13.00;99.90;;;;;;5060475;28;20032;-69
2022/12/20 04:09:43;;;;;;;4.43;2.05;;;13.00;99.90;;;;;;5059955;28;20111;-68
2022/12/20 04:12:09;;;;;;;7.05;2.30;;;12.90;99.90;;;;;;5060529;28;20096;-69
2022/12/20 04:14:36;;;;;;;5.00;1.92;;;12.90;99.90;;;;;;5060368;28;20025;-69
2022/12/20 04:17:02;;;;;;;6.70;2.00;;;12.90;99.90;;;;;;5042025;28;20021;-68
2022/12/20 04:19:27;;;;;;;4.43;1.98;;;12.90;99.90;;;;;;5060242;28;20031;-68
2022/12/20 04:21:55;;;;;;;6.40;2.25;;;12.90;99.90;;;;;;5060105;28;20022;-68
2022/12/20 04:24:21;;;;;;;5.88;1.75;;;12.90;99.90;;;;;;5059895;28;20025;-68
2022/12/20 04:26:48;;;;;;;7.10;2.28;;;12.90;99.90;;;;;;5041972;28;20082;-68
2022/12/20 04:29:14;;;;;;;6.45;1.77;;;12.90;99.90;;;;;;5060009;28;20160;-68
2022/12/20 04:31:40;;;;;;;5.30;1.90;;;12.90;99.90;;;;;;5059739;28;20398;-68
2022/12/20 04:34:05;;;;;;;6.50;1.98;;;12.90;99.90;;;;;;5059986;28;20036;-68
2022/12/20 04:36:31;;;;;;;6.28;1.85;;;12.90;99.90;;;;;;5059894;28;20032;-68
2022/12/20 04:38:56;;;;;;;5.15;1.95;;;12.90;99.90;;;;;;5041753;28;20029;-69
2022/12/20 04:41:22;;;;;;;4.53;1.70;;;12.90;99.90;;;;;;5041820;28;20029;-68
2022/12/20 04:43:53;;;;;;;4.32;2.05;;;12.90;99.90;;;;;;5059795;28;20025;-68
2022/12/20 04:46:19;;;;;;;6.43;2.38;;;12.90;99.90;;;;;;5059444;28;20025;-68
2022/12/20 04:48:45;;;;;;;4.00;1.90;;;12.90;99.90;;;;;;5059703;28;20029;-68
2022/12/20 04:51:11;;;;;;;6.43;2.45;;;12.90;99.90;;;;;;5058803;28;20397;-68
2022/12/20 04:53:49;;;;;;;4.50;1.90;;;12.90;99.90;;;;;;5041435;28;20057;-69
2022/12/20 04:56:16;;;;;;;4.43;2.20;;;12.90;99.90;;;;;;5041545;28;20029;-68
2022/12/20 04:58:41;;;;;;;4.15;1.90;;;12.90;99.90;;;;;;5041294;28;20043;-68
2022/12/20 05:01:07;;;;;;;4.32;2.03;;;12.90;99.90;;;;;;5059394;28;20492;-68
2022/12/20 05:03:33;;;;;;;4.70;1.88;;;12.90;99.90;;;;;;5059370;28;20021;-68
2022/12/20 05:05:59;;;;;;;2.65;1.45;;;12.90;99.90;;;;;;5059284;28;20033;-69
2022/12/20 05:08:25;;;;;;;4.13;2.00;;;12.90;99.90;;;;;;5041192;28;20098;-68
2022/12/20 05:10:50;;;;;;;6.43;1.88;;;12.90;99.90;;;;;;5059094;28;20048;-68
2022/12/20 05:13:16;;;;;;;4.13;2.00;;;12.90;99.90;;;;;;5059234;28;20033;-68
2022/12/20 05:15:42;;;;;;;2.83;1.80;;;12.90;99.90;;;;;;5059067;28;20460;-69
2022/12/20 05:18:09;;;;;;;5.10;1.85;;;12.90;99.90;;;;;;5059146;28;20116;-69
2022/12/20 05:20:34;;;;;;;4.22;1.95;;;12.90;99.90;;;;;;5058869;28;20029;-69
2022/12/20 05:28:32;;;;;;;3.83;1.98;;;12.90;99.90;;;;;;5059063;28;20055;-68
2022/12/20 05:30:58;;;;;;;11.50;2.08;;;12.90;99.90;;;;;;5058893;28;20021;-69
2022/12/20 05:33:24;;;;;;;4.60;2.00;;;12.80;99.90;;;;;;5058779;28;20021;-68
2022/12/20 05:35:49;;;;;;;3.58;2.03;;;12.90;99.90;;;;;;5058680;28;20070;-69
2022/12/20 05:38:15;;;;;;;4.22;2.00;;;12.90;99.90;;;;;;5040472;28;20120;-68
2022/12/20 05:40:41;;;;;;;5.35;1.90;;;12.90;99.90;;;;;;5040870;28;20406;-68
2022/12/20 05:43:07;;;;;;;5.05;2.05;;;12.90;99.90;;;;;;5058777;28;20485;-68
2022/12/20 05:45:34;;;;;;;4.82;2.10;;;12.90;99.90;;;;;;5058677;28;20052;-68
2022/12/20 05:48:00;;;;;;;7.07;2.10;;;12.90;99.90;;;;;;5058395;28;20107;-68
2022/12/20 05:50:25;;;;;;;5.38;2.15;;;12.90;99.90;;;;;;5040473;28;20064;-69
2022/12/20 05:52:51;;;;;;;5.45;2.30;;;12.90;99.90;;;;;;5058464;28;20108;-69
2022/12/20 05:55:17;;;;;;;4.78;1.73;;;12.90;99.90;;;;;;5040293;28;20021;-69
2022/12/20 05:57:42;;;;;;;5.90;2.10;;;12.90;99.90;;;;;;5058455;28;20021;-68
2022/12/20 06:00:09;;;;;;;4.57;1.73;;;12.90;99.90;;;;;;5058315;28;20033;-69
2022/12/20 06:02:35;;;;;;;4.82;2.10;;;12.90;99.90;;;;;;5039953;28;20029;-68
2022/12/20 06:05:01;;;;;;;4.43;1.75;;;12.80;99.90;;;;;;5057317;28;20053;-68
2022/12/20 06:07:30;;;;;;;5.30;1.88;;;12.90;99.90;;;;;;5058079;28;20029;-68
2022/12/20 06:09:57;;;;;;;3.40;1.77;;;12.80;99.90;;;;;;5039825;28;20045;-68
2022/12/20 06:12:23;;;;;;;4.35;1.80;;;12.90;99.90;;;;;;5057880;28;20044;-68
2022/12/20 06:14:48;;;;;;;4.28;1.80;;;12.80;99.90;;;;;;5058142;28;20028;-69
2022/12/20 06:17:14;;;;;;;3.78;1.70;;;12.90;99.90;;;;;;5057753;28;20536;-69
2022/12/20 06:19:43;;;;;;;4.93;2.15;;;12.90;99.90;;;;;;5058076;28;20023;-68
2022/12/20 06:22:08;;;;;;;3.60;1.73;;;12.90;99.90;;;;;;5057322;28;20031;-68
2022/12/20 06:24:35;;;;;;;3.55;1.67;;;12.90;99.90;;;;;;5057862;28;20049;-68
2022/12/20 06:27:02;;;;;;;3.83;1.88;;;12.90;99.90;;;;;;5039755;28;20048;-69
2022/12/20 06:29:28;;;;;;;5.18;1.90;;;12.90;99.90;;;;;;5057614;28;20017;-68
2022/12/20 06:31:54;;;;;;;3.28;1.70;;;12.90;99.90;;;;;;5057237;28;20489;-68
2022/12/20 06:34:20;;;;;;;3.47;1.58;;;12.90;99.90;;;;;;5039780;28;20021;-68
2022/12/20 06:36:46;;;;;;;3.03;1.45;;;12.90;99.90;;;;;;5057537;28;20025;-69
2022/12/20 06:39:12;;;;;;;4.57;1.83;;;12.90;99.90;;;;;;5039171;28;20059;-69
2022/12/20 06:41:39;;;;;;;3.47;2.08;;;12.80;99.90;;;;;;5057319;28;20494;-69
2022/12/20 06:44:05;;;;;;;4.85;1.58;;;12.90;99.90;;;;;;5057407;28;20028;-69
2022/12/20 06:46:30;;;;;;;5.10;1.50;;;12.90;99.90;;;;;;5057229;28;20028;-69
2022/12/20 06:48:56;;;;;;;3.92;1.75;;;12.90;99.90;;;;;;5057482;28;20035;-68
2022/12/20 06:51:22;;;;;;;3.55;1.55;;;12.90;99.90;;;;;;5057265;28;20492;-68
2022/12/20 06:53:48;;;;;;;4.35;2.03;;;12.90;99.90;;;;;;5057294;28;20140;-68
2022/12/20 06:56:14;;;;;;;4.25;1.75;;;12.90;99.90;;;;;;5039384;28;20051;-68
2022/12/20 06:58:40;;;;;;;4.10;1.65;;;12.90;99.90;;;;;;5057497;28;20090;-68
2022/12/20 07:01:05;;;;;;;3.08;1.63;;;12.90;99.90;;;;;;5057235;28;20104;-69
2022/12/20 07:03:31;;;;;;;3.20;1.67;;;12.90;99.90;;;;;;5057160;28;20032;-69
2022/12/20 07:05:57;;;;;;;3.30;1.50;;;12.90;99.90;;;;;;5057025;28;20112;-69
2022/12/20 07:08:23;;;;;;;3.55;1.75;;;12.90;99.90;;;;;;5039177;28;20461;-68
2022/12/20 07:10:51;;;;;;;4.68;1.73;;;12.90;99.90;;;;;;5056879;28;20048;-69
2022/12/20 07:13:17;;;;;;;3.03;1.73;;;12.90;99.90;;;;;;5039299;28;20028;-69
2022/12/20 07:15:43;;;;;;;4.35;1.77;;;12.90;99.90;;;;;;5061910;28;20049;-69
2022/12/20 07:18:09;;;;;;;4.60;1.60;;;12.90;99.90;;;;;;5063760;28;20028;-69
2022/12/20 07:20:35;;;;;;;4.15;1.63;;;13.00;99.90;;;;;;5063705;28;20036;-69
2022/12/20 07:23:01;;;;;;;3.78;1.67;;;12.90;99.90;;;;;;5063792;28;20090;-68
2022/12/20 07:25:27;;;;;;;3.20;1.45;;;12.90;99.90;;;;;;5045435;28;20111;-69
2022/12/20 07:27:52;;;;;;;3.22;1.80;;;12.90;99.90;;;;;;5063670;28;20477;-69
2022/12/20 07:30:19;;;;;;;3.42;1.58;;;13.00;99.90;;;;;;5063611;28;20044;-69
2022/12/20 07:32:46;;;;;;;5.15;1.80;;;13.00;99.90;;;;;;5063522;28;20021;-71
2022/12/20 07:35:13;;;;;;;5.93;1.83;;;13.00;99.90;;;;;;5063443;28;20032;-69
2022/12/20 07:37:39;;;;;;;3.72;1.65;;;13.00;99.90;;;;;;5063426;28;20515;-69
2022/12/20 07:40:05;;;;;;;4.40;1.85;;;13.00;99.90;;;;;;5063232;28;20029;-69
2022/12/20 07:42:31;;;;;;;4.03;2.10;;;13.00;99.90;;;;;;5063394;28;20090;-69
2022/12/20 07:44:57;;;;;;;3.67;1.73;;;13.00;99.90;;;;;;5075210;28;20116;-68
2022/12/20 07:47:22;;;;;;;4.00;1.80;;;13.00;99.90;;;;;;5063392;28;20059;-69
2022/12/20 07:49:48;;;;;;;6.45;2.13;;;13.00;99.90;;;;;;5045455;28;20033;-69
2022/12/20 07:52:18;;;;;;;5.13;2.00;;;12.90;99.90;;;;;;5045290;28;20108;-69
2022/12/20 07:54:49;;;;;;;4.47;2.17;;;13.00;99.90;;;;;;5063315;28;20021;-69
2022/12/20 07:57:20;;;;;;;4.85;2.05;;;13.00;99.90;;;;;;5063555;28;20552;-69
2022/12/20 07:59:50;;;;;;;6.45;1.80;;;12.90;99.90;;;;;;5045344;28;20079;-69
2022/12/20 08:02:39;;;;;;;5.07;2.10;;;12.90;99.90;;;;;;5063291;28;20031;-69
2022/12/20 08:05:08;;;;;;;4.47;1.80;;;13.00;99.90;;;;;;5062987;28;20071;-69
2022/12/20 08:07:35;;;;;;;3.60;1.83;;;12.90;99.90;;;;;;5063327;28;20021;-69
2022/12/20 08:10:01;;;;;;;4.03;1.88;;;13.00;99.90;;;;;;5063073;28;20405;-69
2022/12/20 08:12:28;;;;;;;3.28;1.98;;;12.90;99.90;;;;;;5063397;28;20037;-69
2022/12/20 08:14:55;;;;;;;3.22;1.80;;;12.90;99.90;;;;;;5063464;28;20017;-69
2022/12/20 08:17:21;;;;;;;4.18;1.83;;;13.00;99.90;;;;;;5045072;28;20079;-69
2022/12/20 08:19:50;;;;;;;3.97;1.70;;;13.00;99.90;;;;;;5063406;28;20017;-69
2022/12/20 08:22:19;;;;;;;4.97;2.10;;;12.90;99.90;;;;;;5045204;28;20083;-69
2022/12/20 08:24:45;;;;;;;3.83;2.40;;;13.00;99.90;;;;;;5063078;28;20386;-69
2022/12/20 08:27:10;;;;;;;3.90;2.10;;;13.00;99.90;;;;;;5041849;28;20111;-69
2022/12/20 08:29:36;;;;;;;4.57;2.10;;;13.00;99.90;;;;;;5059939;28;20017;-69
2022/12/20 08:32:02;;;;;;;4.38;2.45;;;12.90;99.90;;;;;;5059598;28;20025;-69
2022/12/20 08:34:27;;;;;;;4.97;2.15;;;13.00;99.90;;;;;;5042025;28;20092;-69
2022/12/20 08:36:53;;;;;;;9.60;2.30;;;13.00;99.90;;;;;;5059778;28;20160;-69
2022/12/20 08:39:18;;;;;;;4.00;2.50;;;13.00;99.90;;;;;;5059629;28;20025;-69
2022/12/20 08:41:44;;;;;;;6.70;2.78;;;13.00;99.90;;;;;;5059536;28;20086;-69
2022/12/20 08:44:10;;;;;;;4.68;1.95;;;12.90;99.90;;;;;;5059739;28;20071;-69
2022/12/20 08:46:36;;;;;;;6.40;3.25;;;12.90;99.90;;;;;;5059176;28;20071;-69
2022/12/20 08:49:03;;;;;;;5.55;2.53;;;13.00;99.90;;;;;;5059715;28;20558;-69
2022/12/20 08:51:28;;;;;;;5.68;2.60;;;12.90;99.90;;;;;;5059445;28;20085;-69
2022/12/20 08:53:54;;;;;;;7.25;2.55;;;12.90;99.90;;;;;;5059411;28;20511;-69
2022/12/20 08:56:20;;;;;;;6.03;2.70;;;12.90;99.90;;;;;;5041389;28;20477;-69
2022/12/20 08:58:46;;;;;;;4.78;2.63;;;12.90;99.90;;;;;;5059554;28;20024;-69
2022/12/20 09:01:15;;;;;;;5.68;2.60;;;12.90;99.90;;;;;;5059063;28;20021;-69
2022/12/20 09:03:41;;;;;;;5.85;3.10;;;12.90;99.90;;;;;;5041358;28;20029;-69
2022/12/20 09:06:10;;;;;;;6.60;3.28;;;12.90;99.90;;;;;;5041380;28;20111;-69
2022/12/20 09:08:37;;;;;;;8.38;2.83;;;12.90;99.90;;;;;;5041333;28;20029;-68
2022/12/20 09:11:09;;;;;;;5.88;2.97;;;12.90;99.90;;;;;;5059039;28;20049;-68
2022/12/20 09:13:35;;;;;;;7.90;2.85;;;12.80;99.90;;;;;;5041096;28;20027;-68
2022/12/20 09:16:03;;;;;;;8.60;3.30;;;12.80;99.90;;;;;;5059356;28;20080;-68
2022/12/20 09:18:29;;;;;;;9.25;3.50;;;12.80;99.90;;;;;;5058911;28;20096;-69
2022/12/20 09:20:54;;;;;;;8.68;3.40;;;12.80;99.90;;;;;;5059128;28;20055;-69
2022/12/20 09:23:20;;;;;;;5.82;3.17;;;12.80;99.90;;;;;;5040893;28;20028;-69
2022/12/20 09:25:45;;;;;;;9.77;4.35;;;12.80;99.90;;;;;;5041183;28;20489;-69
2022/12/20 09:28:11;;;;;;;10.02;3.72;;;12.70;99.90;;;;;;5058366;28;20040;-69
2022/12/20 09:30:37;;;;;;;9.82;3.85;;;12.70;99.90;;;;;;5058974;28;20418;-69
2022/12/20 09:33:02;;;;;;;15.52;4.22;;;12.70;99.90;;;;;;5058774;28;20031;-68
2022/12/20 09:35:28;;;;;;;14.32;4.68;;;12.70;99.90;;;;;;5058844;28;20115;-68
2022/12/20 09:37:54;;;;;;;10.88;3.95;;;12.70;99.90;;;;;;5040894;28;20017;-69
2022/12/20 09:40:29;;;;;;;10.82;4.28;;;12.70;99.90;;;;;;5058589;28;20100;-68
2022/12/20 09:42:55;;;;;;;12.32;4.10;;;12.70;99.90;;;;;;5058574;28;20024;-69
2022/12/20 09:45:30;;;;;;;12.40;4.55;;;12.70;99.90;;;;;;5058653;28;20401;-69
2022/12/20 09:47:56;;;;;;;12.40;4.90;;;12.60;99.90;;;;;;5058486;28;20460;-68
2022/12/20 09:50:57;;;;;;;10.57;4.03;;;12.60;99.90;;;;;;5040578;28;20040;-68
2022/12/20 09:53:35;;;;;;;9.75;3.55;;;12.60;99.90;;;;;;5058720;28;20439;-69
2022/12/20 09:56:08;;;;;;;12.10;3.90;;;12.60;99.90;;;;;;5058285;28;20024;-69
2022/12/20 09:58:46;;;;;;;8.90;3.58;;;12.60;99.90;;;;;;5058359;28;20021;-68
2022/12/20 10:01:23;;;;;;;11.60;3.80;;;12.50;99.90;;;;;;5058275;28;20071;-68
2022/12/20 10:03:48;;;;;;;11.70;3.42;;;12.60;99.90;;;;;;5040206;28;20032;-68
2022/12/20 10:06:21;;;;;;;9.32;3.42;;;12.60;99.90;;;;;;5040419;28;20444;-69
2022/12/20 10:09:01;;;;;;;10.75;3.80;;;12.50;99.90;;;;;;5057996;28;20021;-68
2022/12/20 10:11:57;;;;;;;10.35;3.85;;;12.50;99.90;;;;;;5057705;28;20083;-70
2022/12/20 10:14:57;;;;;;;8.98;2.70;;;12.60;99.90;;;;;;5058248;28;20029;-69
2022/12/20 10:17:37;;;;;;;7.72;3.35;;;12.50;99.90;;;;;;5057584;28;20025;-69
2022/12/20 10:20:28;;;;;;;10.60;2.65;;;12.50;99.90;;;;;;5057993;28;20025;-69
2022/12/20 10:23:22;;;;;;;5.95;3.05;;;12.50;99.90;;;;;;5057999;28;20033;-69
2022/12/20 10:25:50;;;;;;;6.72;2.38;;;12.50;99.90;;;;;;5048329;28;20029;-69
2022/12/20 10:28:16;;;;;;;6.53;3.20;;;12.50;99.90;;;;;;5057792;28;20033;-68
2022/12/20 10:30:42;;;;;;;7.57;2.58;;;12.50;99.90;;;;;;5057748;28;20021;-68
2022/12/20 10:33:21;;;;;;;5.07;2.65;;;12.50;99.90;;;;;;5057682;28;20021;-68
2022/12/20 10:35:47;;;;;;;4.75;2.40;;;12.50;99.90;;;;;;5043793;28;20059;-69
2022/12/20 10:38:16;;;;;;;6.80;2.60;;;12.50;99.90;;;;;;5060907;28;20075;-68
2022/12/20 10:41:00;;;;;;;4.75;2.20;;;12.50;99.90;;;;;;5039774;28;20060;-69
2022/12/20 10:43:27;;;;;;;5.00;2.65;;;12.50;99.90;;;;;;5057569;28;20500;-69
2022/12/20 10:46:06;;;;;;;5.40;2.35;;;12.50;99.90;;;;;;5039757;28;20027;-69
2022/12/20 10:48:35;;;;;;;6.68;2.50;;;12.50;99.90;;;;;;5057528;28;20111;-69
2022/12/20 10:51:01;;;;;;;4.68;2.53;;;12.50;99.90;;;;;;5056765;28;20021;-69
2022/12/20 10:53:27;;;;;;;5.05;2.70;;;12.50;99.90;;;;;;5039082;28;20485;-69
2022/12/20 10:56:06;;;;;;;5.07;2.45;;;12.50;99.90;;;;;;5039430;28;20049;-69
2022/12/20 10:58:35;;;;;;;3.65;2.33;;;12.50;99.90;;;;;;5057713;28;20112;-69
2022/12/20 11:01:13;;;;;;;4.07;2.35;;;12.50;99.90;;;;;;5039160;28;20025;-69
2022/12/20 11:04:06;;;;;;;4.15;2.33;;;12.50;99.90;;;;;;5057179;28;20098;-69
2022/12/20 11:06:37;;;;;;;6.55;2.38;;;12.50;99.90;;;;;;5057383;28;20025;-69
2022/12/20 11:09:18;;;;;;;4.75;2.53;;;12.60;99.90;;;;;;5056937;28;20608;-69
2022/12/20 11:12:00;;;;;;;4.25;2.22;;;12.60;99.90;;;;;;5056826;28;20033;-69
2022/12/20 11:14:26;;;;;;;3.97;2.17;;;12.50;99.90;;;;;;5039368;28;20151;-69
2022/12/20 11:16:54;;;;;;;7.78;2.70;;;12.60;99.90;;;;;;5056904;28;20017;-69
2022/12/20 11:19:33;;;;;;;5.35;2.97;;;12.60;99.90;;;;;;5057152;28;20021;-68
2022/12/20 11:22:10;;;;;;;4.65;2.50;;;12.60;99.90;;;;;;5057136;28;20032;-69
2022/12/20 11:25:06;;;;;;;7.13;2.67;;;12.60;99.90;;;;;;5056837;28;20039;-68
2022/12/20 11:27:52;;;;;;;7.40;2.80;;;12.60;99.90;;;;;;5039114;28;20111;-69
2022/12/20 11:30:21;;;;;;;5.65;2.90;;;12.60;99.90;;;;;;5038810;28;20029;-69
2022/12/20 11:32:49;;;;;;;8.65;2.83;;;12.60;99.90;;;;;;5038793;28;20025;-69
2022/12/20 11:35:29;;;;;;;4.97;2.75;;;12.60;99.90;;;;;;5038669;28;20088;-69
2022/12/20 11:38:09;;;;;;;4.82;2.70;;;12.60;99.90;;;;;;5050691;28;20428;-69
2022/12/20 11:40:45;;;;;;;7.60;3.10;;;12.60;99.90;;;;;;5038974;28;20025;-69
2022/12/20 11:43:19;;;;;;;6.07;2.67;;;12.60;99.90;;;;;;5038931;28;20104;-69
2022/12/20 11:45:56;;;;;;;;;;;12.60;99.90;;;;;;5057270;28;20029;-69
2022/12/20 11:48:35;;;;;;;4.57;2.30;;;12.60;99.90;;;;;;5038866;28;20372;-69
2022/12/20 11:51:29;;;;;;;4.85;2.67;;;12.60;99.90;;;;;;5038836;28;20052;-69
2022/12/20 11:54:24;;;;;;;5.15;2.55;;;12.60;99.90;;;;;;5056697;28;20032;-69
2022/12/20 11:56:55;;;;;;;5.72;2.67;;;12.60;99.90;;;;;;5048059;28;20022;-69
2022/12/20 11:59:29;;;;;;;5.30;2.55;;;12.60;99.90;;;;;;5056896;28;20441;-69
2022/12/20 12:02:01;;;;;;;7.13;2.83;;;12.60;99.90;;;;;;5039974;28;20025;-69
2022/12/20 12:04:31;;;;;;;5.28;2.97;;;12.60;99.90;;;;;;5075826;28;20029;-69
2022/12/20 12:07:05;;;;;;;5.80;2.47;;;12.60;99.90;;;;;;5060715;28;20021;-68
2022/12/20 12:10:01;;;;;;;4.32;2.70;;;12.60;99.90;;;;;;5060258;28;20474;-69
2022/12/20 12:12:35;;;;;;;6.38;2.70;;;12.60;99.90;;;;;;5042345;28;20033;-69
2022/12/20 12:15:14;;;;;;;5.85;2.45;;;12.60;99.90;;;;;;5060309;28;20053;-69
2022/12/20 12:18:01;;;;;;;5.40;2.95;;;12.60;99.90;;;;;;5060475;28;20378;-69
2022/12/20 12:20:36;;;;;;;4.70;2.40;;;12.70;99.90;;;;;;5042265;28;20040;-69
2022/12/20 12:23:20;;;;;;;2.75;2.00;;;12.70;99.90;;;;;;5042043;28;20024;-69
2022/12/20 12:25:46;;;;;;;5.82;2.33;;;12.70;99.90;;;;;;5060201;28;20104;-69
2022/12/20 12:28:13;;;;;;;5.47;2.22;;;12.70;99.90;;;;;;5060090;28;20063;-69
2022/12/20 12:30:47;;;;;;;70.88;24.17;;;12.70;99.90;;;;;;5041689;28;20060;-69
2022/12/20 12:33:31;;;;;;;13.40;6.65;;;12.70;99.90;;;;;;5041861;28;20017;-69
2022/12/20 12:36:12;;;;;;;;;;;12.80;99.90;;;;;;5047832;28;20024;-69
2022/12/20 12:39:10;;;;;;;10.75;4.68;;;12.70;99.90;;;;;;5060153;28;19927;-69
2022/12/20 12:42:03;;;;;;;13.48;5.85;;;12.70;99.90;;;;;;5059649;28;20482;-69
2022/12/20 12:44:41;;;;;;;12.57;5.13;;;12.80;99.90;;;;;;5059711;28;20489;-69
2022/12/20 12:47:23;;;;;;;8.05;3.50;;;12.80;99.90;;;;;;5059694;28;20065;-69
2022/12/20 12:49:52;;;;;;;9.23;3.90;;;12.80;99.90;;;;;;5059507;28;20053;-69
2022/12/20 12:52:38;;;;;;;4.30;2.60;;;12.80;99.90;;;;;;5059631;28;20263;-69
2022/12/20 12:55:39;;;;;;;4.20;2.22;;;12.80;99.90;;;;;;5059444;28;20079;-69
2022/12/20 12:58:31;;;;;;;4.10;1.80;;;12.80;99.90;;;;;;5059442;28;20017;-68
2022/12/20 13:01:10;;;;;;;3.67;2.10;;;12.80;99.90;;;;;;5050644;28;20033;-69
2022/12/20 13:03:42;;;;;;;4.93;2.17;;;12.80;99.90;;;;;;5059510;28;20013;-69
2022/12/20 13:06:22;;;;;;;2.90;2.00;;;12.80;99.90;;;;;;5059260;28;20029;-69
2022/12/20 13:08:57;;;;;;;3.42;1.80;;;12.90;99.90;;;;;;5059074;28;20469;-68